aviador You're here:

KJMR Decoded Metar

MORA in MN, USA
Report Time2018-05-23 16:35:00
UTC Time2018-05-23 16:44:38
Flight Rules vfr VFR
Wind150° at 05 kt
W.Decomp.*RWY 17: 4.6 kt HW 2 kt LCW
W.Rank150° ranks 10
Current wind is below 150° avg. (5.4)
Visibility9999 m
Phenomena:N/A
Clouds:N/A
Expected CloudBase > 3,200 ft AGL from Temp-Dew spread
CeilingNone
Temp23°C (ISA +10)
Dew Point15°C (61% RH)
AAT22.8°C
QNH1021 hPa
Density Alt2,139 ft
Elevation1,014 ft
Report Wrong Elevation
Raw Report
METAR KJMR 231635Z AUTO 15005KT 10SM CLR 23/15 A3014 RMK AO2=

Extra information for KJMR:More info

Metar Taf Metar & Taf Last 4 Metars F.Rules Stats Wind Profile Meteogram Temp Stats Airport Information Weather charts Add Link Nearby VenuesMetar ALERT Operation Metar Decoded Social comments

AIRNAV info for KJMR